createdAt,value
2023-04-20T00:00:06.965Z,93402.47
2023-04-20T00:05:14.036Z,93400.18
2023-04-20T00:10:21.195Z,93400.32
2023-04-20T00:15:28.079Z,93390.28
2023-04-20T00:20:35.806Z,93394.42
2023-04-20T00:25:42.787Z,93395.41
2023-04-20T00:30:49.671Z,93383.95
2023-04-20T00:35:56.949Z,93381.39
2023-04-20T00:41:04.413Z,93380.76
2023-04-20T00:46:12.079Z,93379.42
2023-04-20T00:51:19.171Z,93373.03
2023-04-20T00:56:26.127Z,93371.78
2023-04-20T01:01:33.527Z,93368.41
2023-04-20T01:06:40.831Z,93355.05
2023-04-20T01:11:48.024Z,93353.68
2023-04-20T01:16:56.053Z,93357.56
2023-04-20T01:22:03.326Z,93344.38
2023-04-20T01:27:10.224Z,93345.97
2023-04-20T01:32:17.413Z,93342.54
2023-04-20T01:37:24.800Z,93340.45
2023-04-20T01:42:32.142Z,93344.69
2023-04-20T01:47:39.896Z,93338.39
2023-04-20T01:52:46.812Z,93330.14
2023-04-20T01:57:53.926Z,93336.31
2023-04-20T02:03:01.466Z,93331.94
2023-04-20T02:08:08.893Z,93327.81
2023-04-20T02:13:16.423Z,93319.53
2023-04-20T02:18:23.616Z,93317.94
2023-04-20T02:23:31.226Z,93318.39
2023-04-20T02:28:38.021Z,93320.55
2023-04-20T02:33:44.776Z,93314.56
2023-04-20T02:38:51.454Z,93320.05
2023-04-20T02:43:58.394Z,93320.16
2023-04-20T02:49:05.236Z,93315.53
2023-04-20T02:54:12.221Z,93312.58
2023-04-20T02:59:19.572Z,93318.80
2023-04-20T03:04:28.107Z,93309.86
2023-04-20T03:09:35.935Z,93312.70
2023-04-20T03:14:42.660Z,93310.14
2023-04-20T03:19:49.597Z,93320.95
2023-04-20T03:24:57.561Z,93302.27
2023-04-20T03:30:05.051Z,93310.21
2023-04-20T03:35:12.414Z,93306.58
2023-04-20T03:40:19.247Z,93305.95
2023-04-20T03:45:26.210Z,93314.25
2023-04-20T03:50:33.343Z,93318.53
2023-04-20T03:55:40.262Z,93313.47
2023-04-20T04:00:47.588Z,93312.06
2023-04-20T04:05:54.415Z,93312.25
2023-04-20T04:11:02.502Z,93317.69
2023-04-20T04:16:11.890Z,93320.05
2023-04-20T04:21:18.769Z,93319.78
2023-04-20T04:26:25.959Z,93310.76
2023-04-20T04:31:33.093Z,93315.12
2023-04-20T04:36:40.596Z,93323.66
2023-04-20T04:41:48.184Z,93333.32
2023-04-20T04:46:55.734Z,93337.66
2023-04-20T04:52:03.321Z,93334.61
2023-04-20T04:57:10.131Z,93336.79
2023-04-20T05:02:17.332Z,93349.41
2023-04-20T05:07:25.480Z,93353.34
2023-04-20T05:12:32.816Z,93349.86
2023-04-20T05:17:42.926Z,93350.19
2023-04-20T05:22:50.126Z,93351.46
2023-04-20T05:27:57.026Z,93352.95
2023-04-20T05:33:04.099Z,93353.39
2023-04-20T05:38:11.347Z,93359.53
2023-04-20T05:43:20.041Z,93355.69
2023-04-20T05:48:30.298Z,93364.75
2023-04-20T05:53:37.229Z,93372.17
2023-04-20T05:58:44.530Z,93368.11
2023-04-20T06:03:51.573Z,93375.23
2023-04-20T06:08:58.701Z,93380.08
2023-04-20T06:14:05.836Z,93385.71
2023-04-20T06:19:12.739Z,93380.75
2023-04-20T06:24:19.703Z,93388.57
2023-04-20T06:29:26.467Z,93385.52
2023-04-20T06:34:33.703Z,93384.74
2023-04-20T06:39:40.770Z,93389.95
2023-04-20T06:44:47.542Z,93388.73
2023-04-20T06:49:54.389Z,93395.32
2023-04-20T06:55:02.043Z,93389.36
2023-04-20T07:00:15.028Z,93392.03
2023-04-20T07:05:22.058Z,93388.77
2023-04-20T07:10:28.817Z,93397.98
2023-04-20T07:15:36.049Z,93397.19
2023-04-20T07:20:43.210Z,93399.23
2023-04-20T07:25:50.174Z,93409.89
2023-04-20T07:30:56.963Z,93408.70
2023-04-20T07:36:05.317Z,93410.38
2023-04-20T07:41:13.143Z,93417.38
2023-04-20T07:46:24.851Z,93411.77
2023-04-20T07:51:32.861Z,93422.83
2023-04-20T07:56:39.895Z,93424.22
2023-04-20T08:01:46.950Z,93426.16
2023-04-20T08:06:53.925Z,93427.84
2023-04-20T08:12:00.972Z,93420.48
2023-04-20T08:17:08.898Z,93421.21
2023-04-20T08:22:16.015Z,93422.36
2023-04-20T08:27:22.937Z,93415.02
2023-04-20T08:32:29.858Z,93419.31
2023-04-20T08:37:38.021Z,93423.16
2023-04-20T08:42:46.151Z,93424.20
2023-04-20T08:47:53.781Z,93421.51
2023-04-20T08:53:03.827Z,93424.91
2023-04-20T08:58:10.738Z,93426.56
2023-04-20T09:03:18.140Z,93425.25
2023-04-20T09:08:38.192Z,93424.38
2023-04-20T09:13:45.945Z,93429.30
2023-04-20T09:18:57.414Z,93428.09
2023-04-20T09:24:09.725Z,93433.38
2023-04-20T09:29:27.106Z,93433.91
2023-04-20T09:34:46.035Z,93433.44
2023-04-20T09:39:54.656Z,93423.61
2023-04-20T09:45:04.133Z,93423.27
2023-04-20T09:50:26.579Z,93421.48
2023-04-20T09:55:23.219Z,93420.83
2023-04-20T10:00:31.170Z,93413.38
2023-04-20T10:05:40.303Z,93415.27
2023-04-20T10:10:50.959Z,93416.84
2023-04-20T10:15:57.846Z,93418.44
2023-04-20T10:21:14.040Z,93424.02
2023-04-20T10:26:23.595Z,93428.77
2023-04-20T10:31:39.366Z,93422.36
2023-04-20T10:36:46.842Z,93424.22
2023-04-20T10:42:04.683Z,93422.41
2023-04-20T10:47:12.033Z,93425.04
2023-04-20T10:52:18.880Z,93413.42
2023-04-20T10:57:26.064Z,93401.67
2023-04-20T11:02:33.146Z,93408.20
2023-04-20T11:07:51.015Z,93407.19
2023-04-20T11:13:01.054Z,93408.30
2023-04-20T11:18:13.041Z,93410.77
2023-04-20T11:23:22.353Z,93410.95
2023-04-20T11:28:30.737Z,93405.42
2023-04-20T11:33:37.929Z,93404.16
2023-04-20T11:38:45.308Z,93406.21
2023-04-20T11:43:53.306Z,93403.53
2023-04-20T11:49:01.521Z,93409.17
2023-04-20T11:54:08.499Z,93405.02
2023-04-20T11:59:17.647Z,93403.34
2023-04-20T12:04:25.326Z,93400.82
2023-04-20T12:09:34.692Z,93409.18
2023-04-20T12:14:41.916Z,93405.58
2023-04-20T12:19:48.658Z,93404.16
2023-04-20T12:24:55.521Z,93397.34
2023-04-20T12:30:02.263Z,93394.78
2023-04-20T12:35:10.288Z,93394.29
2023-04-20T12:40:17.068Z,93378.33
2023-04-20T12:45:23.935Z,93387.02
2023-04-20T12:50:30.843Z,93375.48
2023-04-20T12:55:37.919Z,93375.46
2023-04-20T13:00:45.423Z,93372.55
2023-04-20T13:05:52.675Z,93376.87
2023-04-20T13:10:59.793Z,93377.11
2023-04-20T13:16:07.058Z,93377.27
2023-04-20T13:21:14.121Z,93375.86
2023-04-20T13:26:21.218Z,93374.87
2023-04-20T13:31:28.429Z,93372.30
2023-04-20T13:36:35.600Z,93363.80
2023-04-20T13:41:42.690Z,93367.34
2023-04-20T13:46:51.761Z,93365.14
2023-04-20T13:51:58.907Z,93367.63
2023-04-20T13:57:06.326Z,93360.94
2023-04-20T14:02:13.193Z,93355.21
2023-04-20T14:07:20.212Z,93353.39
2023-04-20T14:12:28.176Z,93347.84
2023-04-20T14:17:34.952Z,93351.11
2023-04-20T14:22:43.817Z,93345.83
2023-04-20T14:27:50.567Z,93350.98
2023-04-20T14:33:04.478Z,93346.84
2023-04-20T14:38:11.735Z,93342.58
2023-04-20T14:43:18.832Z,93340.94
2023-04-20T14:48:27.580Z,93341.05
2023-04-20T14:53:35.160Z,93341.99
2023-04-20T14:58:42.823Z,93341.56
2023-04-20T15:03:49.921Z,93341.13
2023-04-20T15:08:57.752Z,93342.89
2023-04-20T15:14:04.802Z,93340.31
2023-04-20T15:19:12.220Z,93341.48
2023-04-20T15:24:19.412Z,93341.72
2023-04-20T15:29:26.351Z,93347.16
2023-04-20T15:34:33.340Z,93346.93
2023-04-20T15:39:40.342Z,93348.58
2023-04-20T15:44:47.336Z,93343.69
2023-04-20T15:49:55.968Z,93347.06
2023-04-20T15:55:04.377Z,93350.61
2023-04-20T16:00:12.931Z,93357.72
2023-04-20T16:05:20.232Z,93356.14
2023-04-20T16:10:28.521Z,93354.15
2023-04-20T16:15:35.181Z,93360.73
2023-04-20T16:20:41.979Z,93362.66
2023-04-20T16:25:48.981Z,93359.02
2023-04-20T16:30:56.508Z,93355.77
2023-04-20T16:36:03.754Z,93361.14
2023-04-20T16:41:10.649Z,93357.66
2023-04-20T16:46:19.535Z,93361.70
2023-04-20T16:51:26.325Z,93358.81
2023-04-20T16:56:33.066Z,93366.59
2023-04-20T17:01:40.314Z,93366.98
2023-04-20T17:06:47.697Z,93368.90
2023-04-20T17:11:54.460Z,93372.38
2023-04-20T17:17:01.321Z,93373.03
2023-04-20T17:22:08.621Z,93383.42
2023-04-20T17:27:16.350Z,93387.19
2023-04-20T17:32:23.106Z,93390.86
2023-04-20T17:37:29.833Z,93386.67
2023-04-20T17:42:36.574Z,93390.10
2023-04-20T17:47:43.283Z,93393.61
2023-04-20T17:52:50.205Z,93401.58
2023-04-20T17:57:56.961Z,93404.74
2023-04-20T18:03:05.763Z,93407.72
2023-04-20T18:08:14.109Z,93411.98
2023-04-20T18:13:20.891Z,93414.89
2023-04-20T18:18:27.653Z,93414.68
2023-04-20T18:23:34.776Z,93414.14
2023-04-20T18:28:41.563Z,93424.75
2023-04-20T18:33:48.345Z,93420.53
2023-04-20T18:38:56.146Z,93429.80
2023-04-20T18:44:02.918Z,93438.52
2023-04-20T18:49:11.072Z,93440.37
2023-04-20T18:54:18.570Z,93437.98
2023-04-20T18:59:26.112Z,93435.91
2023-04-20T19:04:34.412Z,93441.73
2023-04-20T19:09:41.242Z,93438.53
2023-04-20T19:14:49.244Z,93430.61
2023-04-20T19:19:56.705Z,93436.69
2023-04-20T19:25:04.955Z,93435.92
2023-04-20T19:30:12.328Z,93436.45
2023-04-20T19:35:19.107Z,93423.20
2023-04-20T19:40:25.935Z,93431.16
2023-04-20T19:45:32.695Z,93426.92
2023-04-20T19:50:39.504Z,93424.80
2023-04-20T19:55:46.431Z,93429.02
2023-04-20T20:00:53.196Z,93427.97
2023-04-20T20:06:01.414Z,93428.52
2023-04-20T20:11:08.247Z,93426.13
2023-04-20T20:16:14.976Z,93430.08
2023-04-20T20:21:21.705Z,93427.95
2023-04-20T20:26:28.428Z,93424.78
2023-04-20T20:31:35.200Z,93429.02
2023-04-20T20:36:43.490Z,93437.16
2023-04-20T20:41:51.428Z,93427.09
2023-04-20T20:46:58.459Z,93434.53
2023-04-20T20:52:06.973Z,93435.03
2023-04-20T20:57:13.744Z,93434.73
2023-04-20T21:02:20.541Z,93436.84
2023-04-20T21:07:28.651Z,93435.75
2023-04-20T21:12:35.581Z,93442.61
2023-04-20T21:17:42.332Z,93448.69
2023-04-20T21:22:49.373Z,93449.69
2023-04-20T21:27:56.125Z,93452.00
2023-04-20T21:33:02.868Z,93463.63
2023-04-20T21:38:09.630Z,93463.18
2023-04-20T21:43:16.376Z,93466.39
2023-04-20T21:48:23.206Z,93468.97
2023-04-20T21:53:29.955Z,93460.81
2023-04-20T21:58:36.671Z,93461.37
2023-04-20T22:03:43.589Z,93462.71
2023-04-20T22:08:50.629Z,93461.86
2023-04-20T22:13:59.142Z,93462.10
2023-04-20T22:19:05.843Z,93468.25
2023-04-20T22:24:12.591Z,93478.23
2023-04-20T22:29:19.719Z,93481.94
2023-04-20T22:34:26.677Z,93481.05
2023-04-20T22:39:33.342Z,93475.33
2023-04-20T22:44:40.131Z,93474.67
2023-04-20T22:49:47.002Z,93476.13
2023-04-20T22:54:53.812Z,93475.59
2023-04-20T23:00:00.573Z,93478.25
2023-04-20T23:05:08.186Z,93480.62
2023-04-20T23:10:17.948Z,93479.57
2023-04-20T23:15:24.693Z,93477.81
2023-04-20T23:20:31.438Z,93482.83
2023-04-20T23:25:38.855Z,93479.13
2023-04-20T23:30:45.706Z,93475.18
2023-04-20T23:35:52.434Z,93474.84
2023-04-20T23:40:59.133Z,93478.28
2023-04-20T23:46:06.640Z,93472.02
2023-04-20T23:51:13.639Z,93469.11
2023-04-20T23:56:20.400Z,93462.58
